Time;durP1;ratioP1;P1;durP2;ratioP2;P2;SDS_P1;SDS_P2;PMS_P1;PMS_P2;Temp;Humidity;BMP_temperature;BMP_pressure;BME280_temperature;BME280_humidity;BME280_pressure;Samples;Min_cycle;Max_cycle;Signal;HPM_P1;HPM_P2
2023/09/23 00:00:52;;;;;;;6.43;5.73;;;12.30;99.90;;;;;;5001295;28;20207;-85
2023/09/23 00:03:18;;;;;;;5.20;4.57;;;12.40;99.90;;;;;;5019668;28;20187;-86
2023/09/23 00:05:44;;;;;;;5.43;5.03;;;12.40;99.90;;;;;;5017064;28;20184;-85
2023/09/23 00:08:10;;;;;;;5.63;5.13;;;12.40;99.90;;;;;;5017867;28;20220;-85
2023/09/23 00:10:35;;;;;;;6.33;5.73;;;12.40;99.90;;;;;;5013814;28;20563;-85
2023/09/23 00:13:01;;;;;;;5.53;5.03;;;12.40;99.90;;;;;;5022207;28;20206;-86
2023/09/23 00:15:28;;;;;;;9.30;5.33;;;12.30;99.90;;;;;;5012892;28;20192;-87
2023/09/23 00:17:55;;;;;;;8.40;6.10;;;12.30;99.90;;;;;;5015225;28;20180;-85
2023/09/23 00:20:22;;;;;;;6.70;6.00;;;12.30;99.90;;;;;;5017425;28;20210;-86
2023/09/23 00:22:48;;;;;;;7.80;5.80;;;12.30;99.90;;;;;;5025078;28;20200;-86
2023/09/23 00:25:18;;;;;;;6.53;5.83;;;12.30;99.90;;;;;;5025904;28;20696;-85
2023/09/23 00:27:45;;;;;;;7.20;6.50;;;12.30;99.90;;;;;;5009491;28;20214;-86
2023/09/23 00:30:12;;;;;;;6.73;5.87;;;12.20;99.90;;;;;;5028169;28;20244;-87
2023/09/23 00:32:39;;;;;;;6.33;5.77;;;12.10;99.90;;;;;;5029509;28;20203;-86
2023/09/23 00:35:11;;;;;;;7.47;5.87;;;12.10;99.90;;;;;;5029992;28;20179;-86
2023/09/23 00:37:39;;;;;;;6.80;5.57;;;12.00;99.90;;;;;;5031066;28;20187;-86
2023/09/23 00:40:06;;;;;;;8.57;6.27;;;12.00;99.90;;;;;;5029629;28;20180;-86
2023/09/23 00:42:32;;;;;;;7.10;5.87;;;11.90;99.90;;;;;;5029310;28;20195;-86
2023/09/23 00:44:57;;;;;;;8.27;6.93;;;11.90;99.90;;;;;;5011196;28;20195;-86
2023/09/23 00:47:23;;;;;;;9.03;6.60;;;11.90;99.90;;;;;;5024571;28;20211;-86
2023/09/23 00:49:49;;;;;;;9.30;6.83;;;11.90;99.90;;;;;;5022813;28;20188;-86
2023/09/23 00:52:16;;;;;;;7.93;7.00;;;12.00;99.90;;;;;;5028410;28;20192;-86
2023/09/23 00:54:46;;;;;;;8.23;7.43;;;12.00;99.90;;;;;;5018430;28;20195;-86
2023/09/23 00:57:13;;;;;;;8.63;7.30;;;12.00;99.90;;;;;;5031872;28;20190;-86
2023/09/23 00:59:40;;;;;;;8.70;7.90;;;12.00;99.90;;;;;;5014879;28;20621;-86
2023/09/23 01:02:06;;;;;;;9.07;8.17;;;12.00;99.90;;;;;;5031339;28;20207;-86
2023/09/23 01:04:33;;;;;;;8.40;7.43;;;12.00;99.90;;;;;;5023576;28;20188;-86
2023/09/23 01:07:02;;;;;;;7.63;6.83;;;12.00;99.90;;;;;;5002987;28;20208;-86
2023/09/23 01:09:29;;;;;;;7.73;7.07;;;12.00;99.90;;;;;;5018657;28;20195;-86
2023/09/23 01:11:56;;;;;;;9.63;7.17;;;12.00;99.90;;;;;;5027530;28;20261;-86
2023/09/23 01:14:22;;;;;;;8.57;7.20;;;12.00;99.90;;;;;;5020657;28;20562;-86
2023/09/23 01:16:51;;;;;;;9.97;7.43;;;11.90;99.90;;;;;;5019671;28;20188;-86
2023/09/23 01:19:18;;;;;;;8.67;7.97;;;11.80;99.90;;;;;;5018589;28;20180;-86
2023/09/23 01:21:50;;;;;;;10.40;8.60;;;11.80;99.90;;;;;;5018178;28;20204;-86
2023/09/23 01:24:18;;;;;;;8.77;8.00;;;11.80;99.90;;;;;;5019991;28;20184;-86
2023/09/23 01:26:52;;;;;;;10.20;8.43;;;11.80;99.90;;;;;;5018721;28;20218;-86
2023/09/23 01:29:22;;;;;;;9.57;8.50;;;11.70;99.90;;;;;;5000180;28;20196;-86
2023/09/23 01:32:10;;;;;;;8.83;7.90;;;11.70;99.90;;;;;;5016939;28;20198;-86
2023/09/23 01:34:41;;;;;;;10.03;7.43;;;11.60;99.90;;;;;;5022103;28;20203;-86
2023/09/23 01:37:09;;;;;;;7.53;6.83;;;11.60;99.90;;;;;;5018287;28;20188;-86
2023/09/23 01:39:35;;;;;;;7.40;6.80;;;11.60;99.90;;;;;;5017930;28;20218;-86
2023/09/23 01:42:00;;;;;;;7.27;6.57;;;11.50;99.90;;;;;;5026850;28;20222;-86
2023/09/23 01:44:26;;;;;;;6.43;5.87;;;11.50;99.90;;;;;;5026411;28;20180;-86
2023/09/23 01:46:52;;;;;;;5.83;5.33;;;11.40;99.90;;;;;;5017492;28;20204;-87
2023/09/23 01:49:17;;;;;;;6.07;5.10;;;11.40;99.90;;;;;;5018281;28;20173;-86
2023/09/23 01:51:44;;;;;;;6.70;5.07;;;11.40;99.90;;;;;;5018297;28;20196;-86
2023/09/23 01:54:10;;;;;;;6.47;5.73;;;11.40;99.90;;;;;;5018982;28;20176;-87
2023/09/23 01:56:36;;;;;;;8.90;5.20;;;11.40;99.90;;;;;;5024087;28;20183;-86
2023/09/23 01:59:01;;;;;;;6.07;4.97;;;11.40;99.90;;;;;;5020393;28;20191;-86
2023/09/23 02:01:27;;;;;;;9.37;4.90;;;11.40;99.90;;;;;;5017275;28;20206;-86
2023/09/23 02:03:53;;;;;;;6.17;4.87;;;11.30;99.90;;;;;;5018274;28;20180;-86
2023/09/23 02:06:19;;;;;;;5.00;4.60;;;11.30;99.90;;;;;;5018041;28;20653;-86
2023/09/23 02:08:45;;;;;;;8.00;5.30;;;11.30;99.90;;;;;;5018434;28;20187;-86
2023/09/23 02:11:11;;;;;;;9.27;5.20;;;11.30;99.90;;;;;;5017901;28;20204;-86
2023/09/23 02:13:40;;;;;;;7.80;5.27;;;11.30;99.90;;;;;;5016788;28;20179;-86
2023/09/23 02:16:32;;;;;;;7.53;5.20;;;11.30;99.90;;;;;;5040973;28;20167;-86
2023/09/23 02:19:02;;;;;;;5.37;4.87;;;11.30;99.90;;;;;;5022781;28;20179;-87
2023/09/23 02:21:28;;;;;;;5.97;5.13;;;11.30;99.90;;;;;;5037346;28;20195;-87
2023/09/23 02:23:58;;;;;;;4.97;4.57;;;11.30;99.90;;;;;;5036442;28;20187;-86
2023/09/23 02:26:27;;;;;;;8.00;5.47;;;11.30;99.90;;;;;;5037622;28;20172;-85
2023/09/23 02:28:54;;;;;;;6.23;4.77;;;11.20;99.90;;;;;;5020968;28;20176;-86
2023/09/23 02:31:20;;;;;;;8.00;5.50;;;11.20;99.90;;;;;;5039678;28;20195;-86
2023/09/23 02:34:05;;;;;;;6.33;4.90;;;11.20;99.90;;;;;;5040937;28;20200;-88
2023/09/23 02:36:37;;;;;;;5.13;4.63;;;11.20;99.90;;;;;;5021028;28;20195;-86
2023/09/23 02:39:21;;;;;;;5.97;4.70;;;11.20;99.90;;;;;;5052306;28;20152;-86
2023/09/23 02:41:49;;;;;;;9.50;4.70;;;11.10;99.90;;;;;;5041060;23;20232;-70
2023/09/23 02:44:19;;;;;;;6.00;5.33;;;11.10;99.90;;;;;;4992379;28;20693;-71
2023/09/23 02:46:49;;;;;;;7.93;4.90;;;11.00;99.90;;;;;;4992591;28;20200;-71
2023/09/23 02:49:15;;;;;;;6.17;4.97;;;11.00;99.90;;;;;;5020561;28;20211;-71
2023/09/23 02:51:42;;;;;;;8.43;4.60;;;10.90;99.90;;;;;;5022818;28;20178;-71
2023/09/23 02:54:09;;;;;;;8.17;4.90;;;10.90;99.90;;;;;;5013396;28;20338;-71
2023/09/23 02:56:35;;;;;;;5.83;4.83;;;10.80;99.90;;;;;;5015875;28;20180;-72
2023/09/23 02:59:11;;;;;;;4.50;4.10;;;10.80;99.90;;;;;;5014340;28;20210;-70
2023/09/23 03:01:37;;;;;;;6.80;4.80;;;10.70;99.90;;;;;;5015876;28;20175;-70
2023/09/23 03:04:16;;;;;;;7.47;4.83;;;10.70;99.90;;;;;;5017036;28;20562;-71
2023/09/23 03:06:43;;;;;;;8.50;5.20;;;10.70;99.90;;;;;;5011848;28;20192;-71
2023/09/23 03:09:10;;;;;;;5.73;4.57;;;10.60;99.90;;;;;;5010300;28;20326;-70
2023/09/23 03:11:42;;;;;;;6.17;4.77;;;10.60;99.90;;;;;;5011818;28;20168;-70
2023/09/23 03:14:12;;;;;;;5.37;4.13;;;10.60;99.90;;;;;;5011631;28;20176;-70
2023/09/23 03:16:44;;;;;;;9.20;4.43;;;10.60;99.90;;;;;;5012265;28;20659;-71
2023/09/23 03:19:10;;;;;;;5.17;4.67;;;10.70;99.90;;;;;;5011684;28;20206;-71
2023/09/23 03:21:41;;;;;;;7.63;4.50;;;10.80;99.90;;;;;;5014844;28;20180;-72
2023/09/23 03:24:06;;;;;;;5.47;4.10;;;10.80;99.90;;;;;;5013534;28;20176;-70
2023/09/23 03:26:32;;;;;;;4.90;4.37;;;10.80;99.90;;;;;;5011477;28;20227;-71
2023/09/23 03:28:57;;;;;;;6.13;4.13;;;10.80;99.90;;;;;;5011435;28;20196;-71
2023/09/23 03:31:23;;;;;;;5.60;4.10;;;10.80;99.90;;;;;;5011297;28;20743;-71
2023/09/23 03:33:49;;;;;;;7.90;4.37;;;10.90;99.90;;;;;;5016171;28;20258;-71
2023/09/23 03:36:15;;;;;;;6.53;4.07;;;10.90;99.90;;;;;;5012324;28;20184;-71
2023/09/23 03:38:42;;;;;;;12.20;4.37;;;10.90;99.90;;;;;;5013167;28;20188;-71
2023/09/23 03:41:11;;;;;;;8.67;4.47;;;10.90;99.90;;;;;;5017862;28;20172;-71
2023/09/23 03:43:38;;;;;;;4.60;4.20;;;10.90;99.90;;;;;;5011460;28;20192;-71
2023/09/23 03:46:14;;;;;;;8.37;4.73;;;10.90;99.90;;;;;;5011295;28;20552;-71
2023/09/23 03:48:40;;;;;;;6.33;4.50;;;11.00;99.90;;;;;;5010031;28;20207;-72
2023/09/23 03:51:07;;;;;;;6.37;4.57;;;11.00;99.90;;;;;;5010980;28;20674;-71
2023/09/23 03:53:32;;;;;;;7.27;4.40;;;11.00;99.90;;;;;;5012716;28;20713;-71
2023/09/23 03:56:00;;;;;;;6.97;4.30;;;11.00;99.90;;;;;;5014717;28;20275;-73
2023/09/23 03:58:27;;;;;;;7.57;4.70;;;11.00;99.90;;;;;;5003298;28;20200;-72
2023/09/23 04:00:56;;;;;;;4.70;4.30;;;11.10;99.90;;;;;;5011083;28;20173;-71
2023/09/23 04:03:22;;;;;;;5.17;4.60;;;11.10;99.90;;;;;;5012038;28;20575;-70
2023/09/23 04:05:57;;;;;;;8.63;4.77;;;11.10;99.90;;;;;;5015152;28;20176;-71
2023/09/23 04:08:23;;;;;;;8.23;4.67;;;11.10;99.90;;;;;;5014604;28;20203;-70
2023/09/23 04:10:49;;;;;;;6.50;4.23;;;11.10;99.90;;;;;;5016820;28;20172;-71
2023/09/23 04:13:15;;;;;;;7.30;4.40;;;11.10;99.90;;;;;;5014912;28;20187;-71
2023/09/23 04:15:44;;;;;;;8.63;4.17;;;11.10;99.90;;;;;;5019983;28;20251;-71
2023/09/23 04:18:10;;;;;;;6.50;4.60;;;11.10;99.90;;;;;;5014542;28;20215;-71
2023/09/23 04:20:36;;;;;;;7.53;4.23;;;11.10;99.90;;;;;;5014506;28;20251;-70
2023/09/23 04:23:02;;;;;;;5.43;4.40;;;11.10;99.90;;;;;;5014966;28;20174;-71
2023/09/23 04:25:28;;;;;;;5.60;4.83;;;11.10;99.90;;;;;;5014770;28;20272;-70
2023/09/23 04:27:57;;;;;;;7.93;4.67;;;11.10;99.90;;;;;;5014568;28;20200;-71
2023/09/23 04:30:24;;;;;;;4.27;3.97;;;11.10;99.90;;;;;;5014546;28;20188;-71
2023/09/23 04:32:49;;;;;;;6.27;4.57;;;11.10;99.90;;;;;;5016072;28;20262;-71
2023/09/23 04:35:16;;;;;;;4.70;4.30;;;11.10;99.90;;;;;;5014440;28;20260;-71
2023/09/23 04:37:41;;;;;;;7.90;4.73;;;11.10;99.90;;;;;;5014590;28;20180;-71
2023/09/23 04:40:10;;;;;;;5.60;4.37;;;11.10;99.90;;;;;;5014089;28;20181;-71
2023/09/23 04:42:40;;;;;;;4.30;4.00;;;11.10;99.90;;;;;;5014234;28;20202;-71
2023/09/23 04:45:10;;;;;;;6.53;4.07;;;11.10;99.90;;;;;;5014283;28;20678;-70
2023/09/23 04:47:37;;;;;;;10.13;4.67;;;11.10;99.90;;;;;;5018759;28;20207;-71
2023/09/23 04:50:04;;;;;;;8.40;5.10;;;11.00;99.90;;;;;;5019300;28;20328;-72
2023/09/23 04:52:34;;;;;;;4.83;4.10;;;11.00;99.90;;;;;;5014176;28;20652;-70
2023/09/23 04:55:00;;;;;;;7.80;4.90;;;11.00;99.90;;;;;;5014420;28;20184;-70
2023/09/23 04:57:26;;;;;;;4.83;4.37;;;11.00;99.90;;;;;;5021385;28;20639;-70
2023/09/23 04:59:52;;;;;;;6.33;4.47;;;11.00;99.90;;;;;;5013881;28;20224;-71
2023/09/23 05:02:18;;;;;;;5.00;4.53;;;11.00;99.90;;;;;;5013833;28;20266;-70
2023/09/23 05:04:48;;;;;;;4.40;4.10;;;11.00;99.90;;;;;;5014051;28;20178;-71
2023/09/23 05:07:14;;;;;;;4.90;4.40;;;11.00;99.90;;;;;;5014727;28;20227;-70
2023/09/23 05:09:41;;;;;;;6.10;4.13;;;11.00;99.90;;;;;;5013809;28;20266;-71
2023/09/23 05:12:09;;;;;;;8.07;4.30;;;11.00;99.90;;;;;;5013685;28;20172;-70
2023/09/23 05:14:35;;;;;;;6.13;4.70;;;11.00;99.90;;;;;;5013687;28;20576;-70
2023/09/23 05:17:04;;;;;;;4.83;4.20;;;10.90;99.90;;;;;;5013830;28;20235;-70
2023/09/23 05:19:33;;;;;;;9.20;5.13;;;10.90;99.90;;;;;;5013691;28;20311;-70
2023/09/23 05:21:59;;;;;;;4.70;4.40;;;11.00;99.90;;;;;;5015240;28;20258;-70
2023/09/23 05:24:28;;;;;;;4.80;4.40;;;11.00;99.90;;;;;;5013475;28;20267;-70
2023/09/23 05:26:55;;;;;;;6.00;4.43;;;10.90;99.90;;;;;;5013410;28;20223;-71
2023/09/23 05:29:23;;;;;;;7.50;4.60;;;10.90;99.90;;;;;;5013077;28;20200;-70
2023/09/23 05:31:49;;;;;;;4.97;4.67;;;10.90;99.90;;;;;;5013192;28;20183;-70
2023/09/23 05:34:15;;;;;;;7.87;5.00;;;10.90;99.90;;;;;;5013301;28;20184;-70
2023/09/23 05:36:42;;;;;;;6.70;4.60;;;11.00;99.90;;;;;;5013263;28;20176;-70
2023/09/23 05:39:07;;;;;;;7.90;4.93;;;11.00;99.90;;;;;;5013024;28;20192;-70
2023/09/23 05:41:33;;;;;;;6.87;4.67;;;11.00;99.90;;;;;;5016325;28;20726;-70
2023/09/23 05:43:59;;;;;;;5.33;4.93;;;11.00;99.90;;;;;;5013572;28;20226;-70
2023/09/23 05:46:27;;;;;;;6.97;4.60;;;11.00;99.90;;;;;;5012793;28;20283;-70
2023/09/23 05:48:53;;;;;;;9.10;5.30;;;11.00;99.90;;;;;;5012897;28;20584;-71
2023/09/23 05:51:19;;;;;;;5.50;5.00;;;11.00;99.90;;;;;;5012174;28;20184;-71
2023/09/23 05:53:45;;;;;;;10.30;5.20;;;11.00;99.90;;;;;;5012932;28;20172;-71
2023/09/23 05:56:11;;;;;;;6.17;4.93;;;11.00;99.90;;;;;;5013669;28;20255;-70
2023/09/23 05:58:36;;;;;;;5.67;4.87;;;11.00;99.90;;;;;;5019216;28;20253;-72
2023/09/23 06:01:02;;;;;;;5.00;4.70;;;11.00;99.90;;;;;;5012503;28;20195;-70
2023/09/23 06:03:28;;;;;;;6.00;5.60;;;11.00;99.90;;;;;;5012606;28;20525;-70
2023/09/23 06:05:54;;;;;;;8.30;4.73;;;11.10;99.90;;;;;;5012718;28;20179;-70
2023/09/23 06:08:20;;;;;;;8.10;5.60;;;11.10;99.90;;;;;;5012335;28;20269;-70
2023/09/23 06:10:46;;;;;;;6.03;5.00;;;11.10;99.90;;;;;;5012374;28;20172;-70
2023/09/23 06:13:12;;;;;;;8.13;5.70;;;11.20;99.90;;;;;;5014807;28;20619;-70
2023/09/23 06:15:38;;;;;;;7.97;5.37;;;11.20;99.90;;;;;;5012386;28;20191;-70
2023/09/23 06:18:03;;;;;;;7.13;5.27;;;11.30;99.90;;;;;;5012423;28;20279;-70
2023/09/23 06:20:29;;;;;;;5.40;5.00;;;11.30;99.90;;;;;;5011655;28;20206;-72
2023/09/23 06:22:54;;;;;;;9.03;5.13;;;11.30;99.90;;;;;;5012142;28;20184;-70
2023/09/23 06:25:20;;;;;;;5.57;5.10;;;11.40;99.90;;;;;;5011994;28;20194;-71
2023/09/23 06:27:46;;;;;;;7.33;5.20;;;11.50;99.90;;;;;;5010246;28;20204;-71
2023/09/23 06:30:15;;;;;;;6.30;5.37;;;11.50;99.90;;;;;;5011665;28;20176;-71
2023/09/23 06:32:41;;;;;;;7.03;5.30;;;11.60;99.90;;;;;;5012190;28;20177;-71
2023/09/23 06:35:10;;;;;;;7.03;5.53;;;11.70;99.90;;;;;;5012073;28;20172;-71
2023/09/23 06:37:36;;;;;;;5.67;5.10;;;11.80;99.90;;;;;;5011916;28;20691;-71
2023/09/23 06:40:03;;;;;;;6.70;4.63;;;12.00;99.90;;;;;;5019979;28;20203;-72
2023/09/23 06:42:29;;;;;;;5.50;4.93;;;12.40;99.90;;;;;;5010345;28;20196;-71
2023/09/23 06:44:55;;;;;;;7.43;4.30;;;12.80;99.90;;;;;;5011872;28;20231;-71
2023/09/23 06:47:20;;;;;;;4.97;4.20;;;13.20;99.90;;;;;;5010206;28;20694;-72
2023/09/23 06:49:46;;;;;;;4.63;4.03;;;13.70;99.90;;;;;;5011492;28;20196;-72
2023/09/23 06:52:12;;;;;;;5.50;3.63;;;14.10;99.90;;;;;;5011205;28;20184;-71
2023/09/23 06:54:38;;;;;;;3.50;3.20;;;14.40;99.90;;;;;;5011487;28;20172;-71
2023/09/23 06:57:03;;;;;;;5.70;3.07;;;14.80;99.90;;;;;;5011664;28;20180;-72
2023/09/23 06:59:29;;;;;;;35.97;5.47;;;15.30;99.90;;;;;;5011533;28;20200;-71
2023/09/23 07:01:55;;;;;;;7.50;3.50;;;15.70;99.90;;;;;;5010216;28;20187;-71
2023/09/23 07:04:20;;;;;;;6.23;4.20;;;15.90;99.90;;;;;;5011692;28;20191;-72
2023/09/23 07:06:46;;;;;;;9.00;3.20;;;16.00;99.90;;;;;;5011107;28;20215;-73
2023/09/23 07:09:12;;;;;;;4.43;3.17;;;15.90;99.90;;;;;;5011212;28;20203;-75
2023/09/23 07:11:38;;;;;;;4.37;2.93;;;15.90;99.90;;;;;;5010116;28;20172;-72
2023/09/23 07:14:05;;;;;;;3.20;2.90;;;16.00;99.90;;;;;;5011571;28;20184;-73
2023/09/23 07:16:33;;;;;;;4.80;2.73;;;16.40;99.90;;;;;;5011240;28;20196;-71
2023/09/23 07:18:59;;;;;;;4.80;2.80;;;16.40;99.90;;;;;;5012404;28;20192;-71
2023/09/23 07:21:24;;;;;;;5.07;2.93;;;16.40;99.90;;;;;;5010923;28;20200;-72
2023/09/23 07:23:50;;;;;;;3.67;2.90;;;16.60;99.90;;;;;;5011270;28;20543;-74
2023/09/23 07:26:20;;;;;;;4.70;3.10;;;16.90;99.90;;;;;;5011353;28;20180;-71
2023/09/23 07:28:46;;;;;;;7.33;3.37;;;17.20;99.90;;;;;;5011087;28;20208;-71
2023/09/23 07:31:12;;;;;;;4.50;2.60;;;17.50;99.90;;;;;;5010937;28;20207;-71
2023/09/23 07:33:38;;;;;;;3.23;2.90;;;17.80;99.90;;;;;;5010997;28;20176;-71
2023/09/23 07:36:13;;;;;;;4.37;2.87;;;17.90;99.90;;;;;;5011249;28;20168;-71
2023/09/23 07:38:40;;;;;;;15.33;6.27;;;17.80;99.90;;;;;;5012468;28;20191;-71
2023/09/23 07:41:09;;;;;;;10.63;3.83;;;17.90;99.90;;;;;;5014756;28;20180;-71
2023/09/23 07:43:34;;;;;;;4.47;2.70;;;18.20;99.90;;;;;;5015098;28;20195;-71
2023/09/23 07:46:00;;;;;;;6.27;2.80;;;18.30;99.90;;;;;;5015298;28;20678;-70
2023/09/23 07:48:26;;;;;;;5.53;3.30;;;18.40;99.90;;;;;;5014872;28;20215;-71
2023/09/23 07:50:54;;;;;;;3.27;2.40;;;18.40;99.90;;;;;;5015175;28;20587;-71
2023/09/23 07:53:20;;;;;;;2.97;2.20;;;18.40;99.90;;;;;;5014956;28;20172;-70
2023/09/23 07:55:46;;;;;;;2.93;2.43;;;18.30;99.90;;;;;;5013930;28;20180;-71
2023/09/23 07:58:11;;;;;;;4.50;2.73;;;18.40;99.90;;;;;;5015225;28;20206;-70
2023/09/23 08:00:37;;;;;;;4.63;2.90;;;18.40;99.90;;;;;;5014564;28;20180;-72
2023/09/23 08:03:03;;;;;;;4.77;2.70;;;18.20;99.90;;;;;;5014901;28;20230;-71
2023/09/23 08:05:29;;;;;;;4.33;3.30;;;18.30;99.90;;;;;;5014803;28;20601;-70
2023/09/23 08:07:55;;;;;;;11.37;2.80;;;18.40;99.90;;;;;;5013516;28;20211;-71
2023/09/23 08:10:21;;;;;;;4.03;2.37;;;18.40;99.90;;;;;;5014433;28;20230;-69
2023/09/23 08:12:47;;;;;;;8.17;2.90;;;18.60;99.90;;;;;;5014679;28;20188;-70
2023/09/23 08:15:13;;;;;;;4.30;3.30;;;18.90;99.90;;;;;;5014624;28;20648;-71
2023/09/23 08:17:39;;;;;;;3.75;3.45;;;19.00;99.90;;;;;;5014768;28;20180;-71
2023/09/23 08:20:20;;;;;;;2.85;2.58;;;19.20;99.90;;;;;;5014466;28;20208;-71
2023/09/23 08:22:46;;;;;;;2.80;2.60;;;19.50;99.90;;;;;;5014470;28;20176;-70
2023/09/23 08:25:13;;;;;;;4.05;3.00;;;19.60;99.90;;;;;;5014783;28;20180;-70
2023/09/23 08:27:41;;;;;;;3.25;2.78;;;19.50;99.90;;;;;;5006636;28;20204;-70
2023/09/23 08:30:10;;;;;;;3.55;3.25;;;19.60;99.90;;;;;;5014325;28;20191;-70
2023/09/23 08:32:37;;;;;;;4.63;2.40;;;19.40;99.90;;;;;;5014084;28;20208;-70
2023/09/23 08:35:03;;;;;;;6.82;2.72;;;19.40;99.90;;;;;;5014350;28;20585;-70
2023/09/23 08:37:29;;;;;;;4.28;3.10;;;19.90;99.90;;;;;;5014014;28;20512;-70
2023/09/23 08:39:54;;;;;;;3.83;2.90;;;20.20;99.90;;;;;;5013582;28;20227;-71
2023/09/23 08:42:23;;;;;;;3.55;3.03;;;20.50;99.90;;;;;;5012815;28;20195;-71
2023/09/23 08:44:50;;;;;;;3.63;2.42;;;20.70;99.90;;;;;;5014210;28;20227;-70
2023/09/23 08:47:19;;;;;;;4.35;2.97;;;20.40;99.90;;;;;;5012627;28;20204;-70
2023/09/23 08:49:49;;;;;;;3.97;3.67;;;20.10;99.90;;;;;;5013234;28;20663;-71
2023/09/23 08:52:17;;;;;;;4.87;2.97;;;19.50;99.90;;;;;;5013916;28;20188;-70
2023/09/23 08:54:48;;;;;;;2.83;2.57;;;19.00;99.90;;;;;;5014089;28;20179;-70
2023/09/23 08:57:15;;;;;;;4.23;2.90;;;18.40;99.90;;;;;;5014043;28;20221;-70
2023/09/23 08:59:40;;;;;;;4.80;3.07;;;18.10;99.90;;;;;;5005738;28;20196;-69
2023/09/23 09:02:06;;;;;;;7.57;2.77;;;18.10;99.90;;;;;;5013936;28;20307;-70
2023/09/23 09:04:33;;;;;;;5.17;2.67;;;18.40;99.90;;;;;;5013320;28;20588;-70
2023/09/23 09:06:58;;;;;;;3.20;2.50;;;18.80;99.90;;;;;;5013661;28;20204;-70
2023/09/23 09:09:25;;;;;;;3.92;2.70;;;19.10;99.90;;;;;;5013492;28;20593;-71
2023/09/23 09:11:53;;;;;;;4.05;2.65;;;19.50;99.90;;;;;;5012170;28;20188;-72
2023/09/23 09:14:19;;;;;;;4.35;2.97;;;19.90;99.90;;;;;;5014045;28;20183;-71
2023/09/23 09:16:45;;;;;;;5.03;3.57;;;19.90;99.90;;;;;;5020830;28;20196;-72
2023/09/23 09:19:11;;;;;;;5.72;3.08;;;19.90;99.90;;;;;;5013412;28;20224;-70
2023/09/23 09:21:37;;;;;;;7.07;3.50;;;19.90;99.90;;;;;;5020078;28;20182;-70
2023/09/23 09:24:04;;;;;;;3.22;2.88;;;19.80;99.90;;;;;;5013295;28;20168;-70
2023/09/23 09:26:30;;;;;;;3.33;2.70;;;19.80;99.90;;;;;;5013101;28;20197;-71
2023/09/23 09:28:56;;;;;;;4.47;3.28;;;19.80;99.90;;;;;;5013343;28;20560;-70
2023/09/23 09:31:23;;;;;;;4.20;3.67;;;20.00;99.90;;;;;;5013580;28;20184;-71
2023/09/23 09:33:52;;;;;;;3.80;3.50;;;19.80;99.90;;;;;;5020291;28;20172;-71
2023/09/23 09:36:18;;;;;;;3.30;2.53;;;19.60;99.90;;;;;;5013380;28;20695;-71
2023/09/23 09:38:44;;;;;;;2.87;2.60;;;19.20;99.90;;;;;;5012811;28;20208;-71
2023/09/23 09:41:16;;;;;;;5.73;3.33;;;18.80;99.90;;;;;;5012962;28;20195;-71
2023/09/23 09:43:45;;;;;;;3.17;2.73;;;18.70;99.90;;;;;;5013020;28;20223;-70
2023/09/23 09:46:13;;;;;;;4.67;2.87;;;18.80;99.90;;;;;;5013078;28;20172;-71
2023/09/23 09:48:41;;;;;;;4.33;2.50;;;18.80;99.90;;;;;;5012462;28;20294;-71
2023/09/23 09:51:08;;;;;;;2.60;2.40;;;18.90;99.90;;;;;;5012398;28;20573;-71
2023/09/23 09:53:36;;;;;;;2.77;2.30;;;19.00;99.90;;;;;;5011425;28;20569;-70
2023/09/23 09:56:04;;;;;;;2.43;2.23;;;19.30;99.90;;;;;;5011780;28;20195;-70
2023/09/23 09:58:37;;;;;;;5.67;2.50;;;19.60;99.90;;;;;;5020617;28;20732;-71
2023/09/23 10:01:03;;;;;;;3.43;2.47;;;19.60;99.90;;;;;;5011732;28;20172;-71
2023/09/23 10:03:29;;;;;;;3.03;2.53;;;19.40;99.90;;;;;;5012504;28;20191;-72
2023/09/23 10:06:00;;;;;;;6.23;2.70;;;19.50;99.90;;;;;;5012672;28;20184;-71
2023/09/23 10:08:34;;;;;;;5.93;2.83;;;19.30;99.90;;;;;;5010932;28;20238;-71
2023/09/23 10:11:04;;;;;;;5.00;4.00;;;19.00;99.90;;;;;;5018263;28;20171;-71
2023/09/23 10:13:31;;;;;;;4.23;2.93;;;18.70;99.90;;;;;;5014224;28;20176;-71
2023/09/23 10:16:17;;;;;;;4.83;2.80;;;18.60;99.90;;;;;;5012576;28;20180;-71
2023/09/23 10:18:43;;;;;;;4.93;3.40;;;18.50;99.90;;;;;;5012100;28;20192;-70
2023/09/23 10:21:22;;;;;;;3.77;3.30;;;18.20;99.90;;;;;;5012352;28;20198;-71
2023/09/23 10:23:50;;;;;;;4.33;2.50;;;18.00;99.90;;;;;;5004934;28;20180;-71
2023/09/23 10:26:19;;;;;;;4.10;3.10;;;18.00;99.90;;;;;;5016197;28;20266;-71
2023/09/23 10:29:00;;;;;;;3.83;3.10;;;18.20;99.90;;;;;;5013857;28;20207;-72
2023/09/23 10:31:30;;;;;;;4.33;3.13;;;18.40;99.90;;;;;;5011824;28;20254;-72
2023/09/23 10:33:56;;;;;;;2.73;2.53;;;18.50;99.90;;;;;;5015862;28;20182;-72
2023/09/23 10:36:23;;;;;;;3.90;2.83;;;18.50;99.90;;;;;;5014971;28;20180;-72
2023/09/23 10:38:49;;;;;;;3.33;2.60;;;18.50;99.90;;;;;;5011516;28;20205;-72
2023/09/23 10:41:15;;;;;;;2.73;2.50;;;18.60;99.90;;;;;;5019125;28;20266;-73
2023/09/23 10:43:41;;;;;;;3.47;2.60;;;18.60;99.90;;;;;;5010909;28;20219;-72
2023/09/23 10:46:07;;;;;;;2.63;2.53;;;18.60;99.90;;;;;;5012027;28;20456;-72
2023/09/23 10:48:34;;;;;;;4.33;2.93;;;18.60;99.90;;;;;;5019644;28;20584;-71
2023/09/23 10:51:01;;;;;;;3.80;2.90;;;18.40;99.90;;;;;;5017141;28;20201;-72
2023/09/23 10:53:30;;;;;;;3.40;3.10;;;18.00;99.90;;;;;;5010621;28;20183;-72
2023/09/23 10:55:57;;;;;;;2.43;2.33;;;17.70;99.90;;;;;;5011449;28;20168;-72
2023/09/23 10:58:25;;;;;;;5.03;3.80;;;17.50;99.90;;;;;;5010673;28;20204;-72
2023/09/23 11:00:51;;;;;;;4.53;3.50;;;17.50;99.90;;;;;;5018012;28;20180;-72
2023/09/23 11:03:19;;;;;;;2.80;2.60;;;17.60;99.90;;;;;;5021324;28;20194;-73
2023/09/23 11:05:46;;;;;;;2.80;2.60;;;17.80;99.90;;;;;;5011521;28;20188;-73
2023/09/23 11:08:14;;;;;;;2.53;2.43;;;17.80;99.90;;;;;;5011719;28;20220;-72
2023/09/23 11:10:47;;;;;;;3.50;2.80;;;17.80;99.90;;;;;;5011408;28;20183;-72
2023/09/23 11:13:15;;;;;;;3.13;2.93;;;17.80;99.90;;;;;;5011502;28;20512;-73
2023/09/23 11:15:44;;;;;;;3.13;2.70;;;17.70;99.90;;;;;;5011161;28;20184;-72
2023/09/23 11:18:13;;;;;;;2.93;2.63;;;17.90;99.90;;;;;;5011583;28;20238;-71
2023/09/23 11:20:43;;;;;;;2.93;2.73;;;18.20;99.90;;;;;;5010722;28;20211;-72
2023/09/23 11:23:10;;;;;;;2.87;2.60;;;18.50;99.90;;;;;;5014848;28;20199;-71
2023/09/23 11:25:44;;;;;;;2.70;2.37;;;18.50;99.90;;;;;;5010978;28;20456;-72
2023/09/23 11:28:21;;;;;;;6.07;2.50;;;18.60;99.90;;;;;;5011150;28;20668;-71
2023/09/23 11:30:48;;;;;;;5.17;2.47;;;19.00;99.90;;;;;;5010649;28;20184;-71
2023/09/23 11:33:14;;;;;;;5.23;2.97;;;19.40;99.90;;;;;;5011414;28;20644;-72
2023/09/23 11:35:41;;;;;;;2.50;2.30;;;19.50;99.90;;;;;;5010983;28;20631;-73
2023/09/23 11:38:07;;;;;;;3.00;2.50;;;19.80;99.90;;;;;;5010125;28;20258;-72
2023/09/23 11:40:34;;;;;;;4.43;3.00;;;19.80;99.90;;;;;;5020267;28;20176;-73
2023/09/23 11:43:00;;;;;;;2.70;2.50;;;20.10;99.90;;;;;;5017332;28;20287;-72
2023/09/23 11:45:26;;;;;;;3.07;2.70;;;20.20;99.90;;;;;;5009945;28;20447;-72
2023/09/23 11:47:52;;;;;;;3.40;3.10;;;19.90;99.90;;;;;;5010875;28;20512;-73
2023/09/23 11:50:18;;;;;;;3.03;2.57;;;19.70;99.90;;;;;;5010900;28;20254;-73
2023/09/23 11:52:44;;;;;;;3.93;2.53;;;19.50;99.90;;;;;;5010529;28;20184;-73
2023/09/23 11:55:12;;;;;;;3.57;3.27;;;19.50;99.90;;;;;;5011098;28;20191;-74
2023/09/23 11:57:38;;;;;;;3.40;2.50;;;19.70;99.90;;;;;;5015430;28;20186;-73
2023/09/23 12:00:08;;;;;;;3.07;2.87;;;19.80;99.90;;;;;;5010838;28;20558;-72
2023/09/23 12:02:34;;;;;;;6.33;3.30;;;19.90;99.90;;;;;;5010777;28;20266;-74
2023/09/23 12:04:59;;;;;;;3.57;3.27;;;20.10;99.90;;;;;;5009657;28;20839;-73
2023/09/23 12:07:25;;;;;;;4.53;3.03;;;19.90;99.90;;;;;;5011056;28;20579;-73
2023/09/23 12:09:51;;;;;;;3.37;3.17;;;19.70;99.90;;;;;;5010374;28;20203;-72
2023/09/23 12:12:16;;;;;;;3.57;3.10;;;19.50;99.90;;;;;;5010964;28;20215;-73
2023/09/23 12:14:45;;;;;;;3.83;3.40;;;19.30;99.90;;;;;;5010250;28;20184;-72
2023/09/23 12:17:14;;;;;;;3.43;3.13;;;19.20;99.90;;;;;;5010730;28;20240;-72
2023/09/23 12:19:40;;;;;;;4.27;3.03;;;19.20;99.90;;;;;;5010552;28;20577;-73
2023/09/23 12:22:06;;;;;;;4.53;3.00;;;19.40;99.90;;;;;;5011613;28;20223;-73
2023/09/23 12:24:31;;;;;;;2.93;2.70;;;19.40;99.90;;;;;;5017330;28;20294;-73
2023/09/23 12:26:58;;;;;;;4.03;3.47;;;19.50;99.90;;;;;;5014133;28;20215;-71
2023/09/23 12:29:24;;;;;;;3.00;2.80;;;19.60;99.90;;;;;;5014244;28;20505;-73
2023/09/23 12:31:49;;;;;;;2.97;2.77;;;19.80;99.90;;;;;;5012640;28;20581;-72
2023/09/23 12:34:15;;;;;;;2.90;2.70;;;20.20;99.90;;;;;;5013416;28;20184;-72
2023/09/23 12:36:41;;;;;;;3.10;2.90;;;20.30;99.90;;;;;;5013854;28;20264;-73
2023/09/23 12:39:06;;;;;;;2.92;2.70;;;20.70;99.90;;;;;;5012971;28;20578;-72
2023/09/23 12:41:32;;;;;;;2.97;2.80;;;20.90;99.90;;;;;;5012362;28;20651;-73
2023/09/23 12:43:58;;;;;;;4.82;3.60;;;20.70;99.90;;;;;;5012741;28;20180;-73
2023/09/23 12:46:23;;;;;;;3.72;3.42;;;20.80;99.90;;;;;;5012814;28;20674;-72